createdAt,value
2023-03-27T00:00:37.853Z,4.40
2023-03-27T00:03:27.984Z,5.00
2023-03-27T00:06:16.444Z,5.90
2023-03-27T00:09:04.537Z,6.00
2023-03-27T00:11:51.766Z,5.70
2023-03-27T00:14:38.025Z,5.10
2023-03-27T00:17:24.803Z,4.70
2023-03-27T00:20:11.158Z,6.40
2023-03-27T00:22:57.906Z,5.20
2023-03-27T00:25:45.850Z,6.80
2023-03-27T00:28:32.389Z,7.60
2023-03-27T00:31:18.980Z,6.00
2023-03-27T00:34:06.015Z,5.90
2023-03-27T00:36:53.229Z,5.40
2023-03-27T00:39:41.288Z,5.80
2023-03-27T00:42:28.008Z,5.00
2023-03-27T00:45:19.365Z,7.30
2023-03-27T00:48:08.263Z,5.60
2023-03-27T00:50:56.915Z,5.50
2023-03-27T00:53:45.475Z,5.20
2023-03-27T00:56:33.268Z,5.70
2023-03-27T00:59:22.902Z,7.00
2023-03-27T01:02:10.639Z,4.50
2023-03-27T01:04:58.236Z,5.00
2023-03-27T01:08:00.637Z,5.70
2023-03-27T01:11:19.614Z,5.50
2023-03-27T01:14:43.436Z,6.20
2023-03-27T01:18:06.484Z,6.20
2023-03-27T01:21:14.020Z,6.30
2023-03-27T01:24:44.896Z,6.00
2023-03-27T01:27:58.023Z,7.20
2023-03-27T01:31:16.928Z,6.30
2023-03-27T01:34:14.350Z,6.00
2023-03-27T01:37:31.621Z,8.10
2023-03-27T01:40:32.088Z,5.40
2023-03-27T01:43:36.263Z,6.40
2023-03-27T01:46:41.142Z,5.50
2023-03-27T01:49:39.327Z,5.90
2023-03-27T01:52:32.986Z,6.70
2023-03-27T01:55:25.401Z,6.10
2023-03-27T01:58:28.746Z,4.50
2023-03-27T02:01:21.788Z,4.80
2023-03-27T02:04:23.562Z,5.70
2023-03-27T02:07:18.147Z,5.60
2023-03-27T02:10:14.789Z,5.60
2023-03-27T02:13:09.138Z,5.20
2023-03-27T02:15:59.476Z,4.90
2023-03-27T02:19:01.173Z,5.10
2023-03-27T02:21:47.818Z,5.70
2023-03-27T02:24:34.829Z,6.30
2023-03-27T02:27:42.935Z,4.90
2023-03-27T02:31:06.215Z,5.20
2023-03-27T02:34:31.416Z,5.60
2023-03-27T02:37:54.770Z,6.80
2023-03-27T02:41:13.712Z,5.00
2023-03-27T02:44:11.336Z,5.60
2023-03-27T02:47:39.229Z,5.40
2023-03-27T02:50:33.759Z,4.90
2023-03-27T02:53:29.897Z,4.60
2023-03-27T02:56:21.755Z,5.70
2023-03-27T02:59:38.882Z,5.10
2023-03-27T03:02:32.396Z,5.10
2023-03-27T03:05:22.566Z,6.10
2023-03-27T03:08:09.682Z,5.80
2023-03-27T03:11:04.135Z,6.20
2023-03-27T03:13:50.575Z,5.50
2023-03-27T03:16:37.191Z,5.90
2023-03-27T03:19:26.002Z,6.10
2023-03-27T03:22:15.351Z,6.30
2023-03-27T03:25:01.983Z,5.50
2023-03-27T03:27:48.745Z,5.40
2023-03-27T03:30:41.385Z,6.10
2023-03-27T03:33:30.396Z,5.10
2023-03-27T03:36:17.070Z,5.80
2023-03-27T03:39:05.177Z,5.20
2023-03-27T03:41:52.412Z,5.30
2023-03-27T03:44:39.202Z,5.90
2023-03-27T03:47:38.865Z,6.40
2023-03-27T03:50:25.699Z,6.30
2023-03-27T03:53:13.923Z,7.20
2023-03-27T03:56:00.929Z,6.70
2023-03-27T03:58:47.737Z,6.10
2023-03-27T04:01:35.051Z,6.00
2023-03-27T04:04:23.163Z,6.10
2023-03-27T04:07:30.991Z,6.10
2023-03-27T04:10:31.514Z,7.20
2023-03-27T04:13:19.365Z,7.00
2023-03-27T04:16:20.703Z,6.70
2023-03-27T04:19:10.033Z,7.80
2023-03-27T04:22:01.522Z,7.70
2023-03-27T04:24:51.114Z,7.50
2023-03-27T04:27:38.586Z,7.30
2023-03-27T04:30:36.321Z,8.50
2023-03-27T04:33:45.828Z,8.10
2023-03-27T04:37:01.829Z,9.10
2023-03-27T04:39:49.216Z,7.60
2023-03-27T04:42:43.519Z,12.80
2023-03-27T04:45:31.768Z,17.10
2023-03-27T04:48:18.632Z,22.00
2023-03-27T04:51:08.825Z,16.80
2023-03-27T04:53:55.976Z,18.50
2023-03-27T04:56:45.032Z,11.80
2023-03-27T04:59:31.501Z,21.50
2023-03-27T05:02:36.391Z,15.30
2023-03-27T05:05:30.745Z,9.20
2023-03-27T05:08:18.427Z,9.90
2023-03-27T05:11:04.831Z,9.40
2023-03-27T05:14:00.636Z,9.70
2023-03-27T05:16:51.843Z,8.00
2023-03-27T05:19:38.697Z,7.50
2023-03-27T05:22:26.932Z,8.20
2023-03-27T05:25:21.991Z,7.90
2023-03-27T05:28:08.836Z,6.60
2023-03-27T05:30:56.637Z,7.20
2023-03-27T05:33:44.329Z,6.60
2023-03-27T05:36:31.546Z,6.30
2023-03-27T05:39:19.643Z,6.70
2023-03-27T05:42:07.080Z,7.70
2023-03-27T05:44:55.608Z,8.10
2023-03-27T05:47:53.580Z,7.00
2023-03-27T05:50:41.580Z,6.60
2023-03-27T05:53:38.834Z,7.70
2023-03-27T05:56:37.429Z,6.50
2023-03-27T05:59:24.415Z,6.50
2023-03-27T06:02:19.196Z,8.50
2023-03-27T06:05:13.798Z,7.40
2023-03-27T06:08:01.785Z,9.20
2023-03-27T06:10:48.598Z,8.50
2023-03-27T06:13:42.798Z,8.00
2023-03-27T06:16:31.289Z,10.00
2023-03-27T06:19:32.837Z,8.00
2023-03-27T06:22:19.717Z,8.70
2023-03-27T06:25:08.417Z,7.70
2023-03-27T06:27:55.296Z,7.00
2023-03-27T06:30:42.383Z,6.20
2023-03-27T06:33:46.434Z,6.50
2023-03-27T06:37:04.713Z,6.10
2023-03-27T06:39:57.063Z,6.70
2023-03-27T06:43:05.318Z,7.00
2023-03-27T06:45:57.586Z,5.70
2023-03-27T06:49:03.370Z,5.60
2023-03-27T06:51:50.339Z,5.50
2023-03-27T06:54:39.943Z,5.60
2023-03-27T06:57:26.793Z,5.40
2023-03-27T07:00:23.871Z,5.60
2023-03-27T07:03:33.770Z,5.00
2023-03-27T07:06:50.038Z,5.70
2023-03-27T07:09:39.707Z,5.10
2023-03-27T07:12:27.526Z,6.70
2023-03-27T07:15:15.745Z,7.00
2023-03-27T07:18:05.947Z,7.00
2023-03-27T07:20:52.880Z,5.70
2023-03-27T07:23:41.816Z,5.40
2023-03-27T07:26:32.837Z,6.30
2023-03-27T07:29:21.133Z,6.50
2023-03-27T07:32:12.241Z,5.70
2023-03-27T07:35:06.127Z,6.30
2023-03-27T07:38:11.744Z,5.60
2023-03-27T07:41:06.130Z,6.30
2023-03-27T07:44:19.531Z,6.10
2023-03-27T07:47:15.067Z,6.00
2023-03-27T07:50:02.513Z,6.10
2023-03-27T07:52:49.848Z,5.40
2023-03-27T07:55:37.205Z,5.70
2023-03-27T07:58:27.401Z,6.90
2023-03-27T08:01:14.837Z,5.00
2023-03-27T08:04:03.267Z,5.80
2023-03-27T08:06:51.141Z,5.40
2023-03-27T08:09:39.735Z,5.80
2023-03-27T08:12:26.425Z,5.50
2023-03-27T08:15:18.170Z,5.10
2023-03-27T08:18:06.268Z,5.30
2023-03-27T08:20:59.460Z,4.50
2023-03-27T08:23:47.040Z,5.70
2023-03-27T08:26:51.717Z,5.40
2023-03-27T08:29:39.537Z,6.60
2023-03-27T08:32:27.305Z,5.90
2023-03-27T08:35:14.064Z,7.20
2023-03-27T08:38:00.745Z,7.20
2023-03-27T08:41:17.173Z,7.90
2023-03-27T08:44:17.955Z,6.50
2023-03-27T08:47:18.658Z,6.50
2023-03-27T08:50:35.684Z,5.70
2023-03-27T08:54:03.120Z,5.50
2023-03-27T08:56:50.935Z,5.80
2023-03-27T08:59:38.262Z,6.00
2023-03-27T09:02:50.900Z,5.80
2023-03-27T09:06:07.998Z,4.60
2023-03-27T09:09:23.249Z,6.00
2023-03-27T09:13:11.443Z,6.70
2023-03-27T09:16:25.637Z,6.30
2023-03-27T09:19:21.027Z,5.90
2023-03-27T09:22:22.837Z,5.60
2023-03-27T09:25:52.945Z,6.10
2023-03-27T09:29:00.995Z,6.00
2023-03-27T09:31:56.925Z,14.30
2023-03-27T09:34:45.475Z,5.70
2023-03-27T09:37:37.203Z,6.20
2023-03-27T09:40:52.673Z,5.80
2023-03-27T09:43:53.304Z,6.40
2023-03-27T09:46:47.357Z,6.10
2023-03-27T09:49:35.306Z,5.90
2023-03-27T09:52:37.721Z,5.10
2023-03-27T09:55:55.078Z,6.00
2023-03-27T09:58:48.430Z,5.80
2023-03-27T10:01:35.483Z,5.70
2023-03-27T10:04:28.594Z,6.00
2023-03-27T10:07:26.263Z,7.20
2023-03-27T10:10:37.237Z,5.20
2023-03-27T10:13:28.848Z,5.70
2023-03-27T10:16:19.752Z,5.10
2023-03-27T10:19:30.220Z,5.40
2023-03-27T10:22:35.957Z,5.30
2023-03-27T10:25:33.640Z,6.10
2023-03-27T10:28:46.140Z,5.60
2023-03-27T10:31:49.317Z,6.00
2023-03-27T10:34:57.654Z,6.20
2023-03-27T10:38:15.006Z,5.30
2023-03-27T10:41:37.559Z,5.30
2023-03-27T10:44:27.766Z,6.30
2023-03-27T10:47:25.738Z,5.40
2023-03-27T10:50:33.126Z,6.50
2023-03-27T10:53:42.958Z,6.10
2023-03-27T10:56:52.588Z,6.30
2023-03-27T11:00:06.755Z,6.50
2023-03-27T11:03:22.456Z,5.70
2023-03-27T11:06:18.291Z,6.00
2023-03-27T11:09:18.589Z,4.80
2023-03-27T11:12:18.933Z,5.50
2023-03-27T11:15:41.730Z,5.00
2023-03-27T11:19:10.702Z,6.30
2023-03-27T11:22:28.284Z,6.30
2023-03-27T11:25:51.268Z,5.80
2023-03-27T11:28:49.102Z,5.90
2023-03-27T11:31:48.769Z,6.40
2023-03-27T11:35:04.203Z,5.30
2023-03-27T11:38:20.996Z,5.30
2023-03-27T11:41:14.644Z,4.80
2023-03-27T11:44:01.967Z,4.90
2023-03-27T11:48:12.340Z,4.80
2023-03-27T11:51:21.940Z,4.60
2023-03-27T11:54:29.993Z,6.30
2023-03-27T11:57:26.463Z,7.00
2023-03-27T12:00:31.299Z,5.50
2023-03-27T12:04:13.618Z,6.70
2023-03-27T12:07:36.146Z,6.20
2023-03-27T12:10:38.210Z,5.30
2023-03-27T12:14:40.424Z,5.40
2023-03-27T12:17:57.583Z,4.20
2023-03-27T12:21:19.807Z,4.90
2023-03-27T12:24:59.632Z,5.30
2023-03-27T12:28:22.768Z,4.60
2023-03-27T12:31:59.774Z,4.90
2023-03-27T12:34:56.639Z,5.70
2023-03-27T12:37:58.230Z,5.30
2023-03-27T12:41:00.333Z,5.00
2023-03-27T12:43:54.660Z,4.70
2023-03-27T12:47:22.171Z,5.60
2023-03-27T12:50:25.792Z,5.10
2023-03-27T12:53:32.784Z,5.20
2023-03-27T12:56:33.771Z,5.00
2023-03-27T12:59:27.587Z,9.00
2023-03-27T13:02:15.438Z,4.90
2023-03-27T13:05:32.079Z,6.00
2023-03-27T13:08:44.561Z,5.70
2023-03-27T13:12:36.098Z,5.20
2023-03-27T13:15:36.555Z,5.20
2023-03-27T13:19:06.693Z,4.30
2023-03-27T13:22:18.275Z,5.40
2023-03-27T13:25:45.368Z,6.00
2023-03-27T13:31:46.078Z,5.90
2023-03-27T13:35:23.510Z,4.80
2023-03-27T13:38:12.942Z,6.20
2023-03-27T13:41:44.268Z,5.40
2023-03-27T13:45:14.758Z,6.30
2023-03-27T13:48:13.346Z,6.20
2023-03-27T13:51:34.277Z,5.30
2023-03-27T13:54:39.812Z,4.90
2023-03-27T13:57:55.875Z,6.20
2023-03-27T14:01:08.916Z,5.40
2023-03-27T14:04:35.200Z,5.40
2023-03-27T14:07:51.930Z,5.20
2023-03-27T14:11:03.920Z,4.60
2023-03-27T14:14:32.001Z,5.30
2023-03-27T14:17:21.925Z,5.50
2023-03-27T14:20:18.501Z,4.80
2023-03-27T14:23:14.564Z,5.20
2023-03-27T14:26:29.111Z,4.80
2023-03-27T14:29:16.370Z,5.20
2023-03-27T14:32:15.307Z,5.90
2023-03-27T14:35:24.799Z,5.60
2023-03-27T14:38:30.897Z,5.40
2023-03-27T14:41:21.635Z,4.10
2023-03-27T14:44:19.137Z,4.20
2023-03-27T14:47:13.163Z,5.30
2023-03-27T14:50:01.241Z,5.20
2023-03-27T14:52:59.611Z,6.50
2023-03-27T14:55:52.370Z,7.10
2023-03-27T14:59:28.259Z,8.10
2023-03-27T15:02:31.248Z,7.40
2023-03-27T15:05:22.061Z,9.20
2023-03-27T15:08:12.374Z,5.80
2023-03-27T15:11:32.827Z,7.90
2023-03-27T15:14:29.825Z,8.20
2023-03-27T15:17:19.680Z,6.90
2023-03-27T15:20:10.476Z,7.90
2023-03-27T15:23:11.979Z,7.30
2023-03-27T15:26:08.922Z,7.30
2023-03-27T15:29:03.565Z,6.30
2023-03-27T15:31:51.718Z,5.80
2023-03-27T15:34:47.817Z,5.40
2023-03-27T15:37:34.702Z,5.90
2023-03-27T15:40:31.190Z,5.10
2023-03-27T15:43:24.315Z,5.50
2023-03-27T15:46:20.934Z,5.40
2023-03-27T15:49:31.973Z,4.80
2023-03-27T15:52:32.325Z,5.90
2023-03-27T15:55:37.377Z,6.40
2023-03-27T15:58:28.400Z,7.20
2023-03-27T16:01:38.348Z,6.90
2023-03-27T16:04:45.556Z,5.80
2023-03-27T16:07:45.509Z,6.40
2023-03-27T16:10:33.371Z,5.90
2023-03-27T16:13:34.734Z,5.30
2023-03-27T16:16:38.128Z,6.10
2023-03-27T16:19:24.805Z,6.70
2023-03-27T16:22:12.667Z,6.50
2023-03-27T16:25:00.988Z,6.90
2023-03-27T16:27:54.083Z,8.00
2023-03-27T16:30:41.442Z,7.20
2023-03-27T16:33:28.934Z,8.70
2023-03-27T16:36:20.128Z,8.20
2023-03-27T16:39:08.685Z,9.70
2023-03-27T16:41:55.813Z,11.80
2023-03-27T16:44:44.468Z,13.30
2023-03-27T16:47:31.508Z,11.30
2023-03-27T16:50:22.904Z,7.00
2023-03-27T16:53:13.443Z,6.70
2023-03-27T16:56:00.473Z,7.90
2023-03-27T16:58:48.570Z,8.10
2023-03-27T17:01:35.410Z,4.70
2023-03-27T17:04:22.821Z,5.70
2023-03-27T17:07:10.093Z,6.90
2023-03-27T17:09:56.910Z,7.60
2023-03-27T17:12:44.140Z,8.80
2023-03-27T17:15:35.562Z,8.70
2023-03-27T17:18:25.405Z,9.70
2023-03-27T17:21:11.814Z,10.10
2023-03-27T17:24:01.520Z,9.00
2023-03-27T17:26:48.264Z,8.10
2023-03-27T17:29:34.574Z,7.80
2023-03-27T17:32:21.122Z,7.90
2023-03-27T17:35:08.717Z,8.10
2023-03-27T17:37:56.392Z,9.60
2023-03-27T17:40:43.041Z,11.50
2023-03-27T17:43:29.926Z,9.20
2023-03-27T17:46:16.178Z,10.60
2023-03-27T17:49:03.169Z,14.20
2023-03-27T17:51:50.088Z,12.10
2023-03-27T17:54:37.240Z,12.30
2023-03-27T17:57:23.818Z,17.30
2023-03-27T18:00:11.100Z,18.10
2023-03-27T18:03:03.179Z,22.00
2023-03-27T18:05:51.612Z,24.70
2023-03-27T18:08:38.663Z,16.40
2023-03-27T18:11:25.456Z,17.00
2023-03-27T18:14:12.731Z,15.90
2023-03-27T18:16:59.435Z,18.30
2023-03-27T18:19:49.702Z,15.80
2023-03-27T18:22:38.493Z,18.70
2023-03-27T18:25:25.197Z,15.50
2023-03-27T18:28:12.650Z,20.30
2023-03-27T18:31:07.705Z,16.10
2023-03-27T18:33:54.678Z,13.80
2023-03-27T18:36:41.961Z,15.50
2023-03-27T18:39:28.504Z,13.70
2023-03-27T18:42:15.041Z,14.30
2023-03-27T18:45:02.484Z,12.10
2023-03-27T18:47:49.175Z,13.30
2023-03-27T18:50:35.778Z,9.70
2023-03-27T18:53:23.135Z,11.60
2023-03-27T18:56:09.866Z,15.30
2023-03-27T18:58:56.512Z,15.60
2023-03-27T19:01:43.558Z,12.10
2023-03-27T19:04:31.159Z,16.90
2023-03-27T19:07:21.549Z,14.70
2023-03-27T19:10:09.864Z,27.60
2023-03-27T19:12:56.806Z,25.80
2023-03-27T19:16:02.387Z,32.60
2023-03-27T19:19:37.731Z,25.20
2023-03-27T19:22:40.854Z,22.30
2023-03-27T19:26:10.065Z,17.10
2023-03-27T19:29:00.510Z,26.30
2023-03-27T19:31:47.742Z,20.70
2023-03-27T19:34:42.319Z,23.90
2023-03-27T19:37:30.789Z,27.60
2023-03-27T19:40:19.933Z,26.90
2023-03-27T19:43:06.791Z,27.90
2023-03-27T19:46:04.390Z,22.00
2023-03-27T19:49:04.450Z,19.20
2023-03-27T19:52:20.772Z,16.70
2023-03-27T19:55:08.990Z,15.20
2023-03-27T20:01:37.151Z,18.20
2023-03-27T20:04:23.859Z,17.00
2023-03-27T20:07:10.596Z,21.10
2023-03-27T20:09:57.135Z,21.30
2023-03-27T20:12:43.955Z,21.10
2023-03-27T20:15:30.531Z,22.40
2023-03-27T20:18:19.433Z,21.90
2023-03-27T20:21:05.795Z,17.70
2023-03-27T20:23:55.181Z,26.70
2023-03-27T20:26:47.639Z,20.90
2023-03-27T20:29:36.696Z,18.20
2023-03-27T20:32:25.618Z,24.60
2023-03-27T20:35:23.561Z,22.20
2023-03-27T20:38:12.882Z,22.10
2023-03-27T20:41:10.525Z,21.20
2023-03-27T20:44:02.481Z,24.40
2023-03-27T20:46:54.547Z,20.00
2023-03-27T20:49:43.266Z,22.90
2023-03-27T20:52:30.544Z,26.50
2023-03-27T20:55:32.948Z,22.40
2023-03-27T20:58:28.472Z,26.30
2023-03-27T21:01:18.827Z,18.40
2023-03-27T21:04:06.370Z,17.70
2023-03-27T21:06:54.275Z,21.40
2023-03-27T21:09:43.607Z,20.50
2023-03-27T21:12:31.721Z,17.70
2023-03-27T21:15:18.946Z,18.50
2023-03-27T21:18:05.321Z,16.70
2023-03-27T21:20:52.597Z,21.00
2023-03-27T21:23:39.381Z,23.10
2023-03-27T21:26:25.667Z,24.20
2023-03-27T21:29:14.704Z,25.60
2023-03-27T21:32:01.146Z,23.90
2023-03-27T21:34:47.896Z,23.20
2023-03-27T21:37:34.295Z,21.70
2023-03-27T21:40:20.968Z,25.70
2023-03-27T21:43:08.448Z,27.60
2023-03-27T21:45:54.984Z,26.90
2023-03-27T21:48:44.029Z,26.00
2023-03-27T21:51:30.470Z,24.50
2023-03-27T21:54:17.106Z,21.90
2023-03-27T21:57:04.090Z,24.90
2023-03-27T21:59:50.246Z,24.40
2023-03-27T22:02:36.924Z,18.90
2023-03-27T22:05:24.034Z,21.70
2023-03-27T22:08:11.894Z,24.00
2023-03-27T22:11:01.312Z,28.40
2023-03-27T22:13:48.480Z,22.90
2023-03-27T22:16:34.874Z,26.20
2023-03-27T22:19:20.931Z,25.10
2023-03-27T22:22:07.237Z,27.30
2023-03-27T22:24:53.445Z,25.20
2023-03-27T22:27:40.605Z,30.50
2023-03-27T22:30:27.249Z,27.00
2023-03-27T22:33:16.317Z,17.60
2023-03-27T22:36:06.055Z,24.70
2023-03-27T22:38:53.806Z,26.10
2023-03-27T22:41:43.955Z,23.60
2023-03-27T22:44:32.653Z,25.40
2023-03-27T22:47:19.712Z,22.40
2023-03-27T22:50:09.535Z,26.10
2023-03-27T22:52:56.546Z,24.20
2023-03-27T22:55:51.823Z,23.10
2023-03-27T22:58:38.453Z,17.60
2023-03-27T23:01:25.959Z,22.90
2023-03-27T23:04:12.717Z,23.30
2023-03-27T23:07:01.959Z,19.30
2023-03-27T23:09:48.920Z,19.10
2023-03-27T23:12:35.820Z,20.90
2023-03-27T23:15:29.765Z,19.10
2023-03-27T23:18:21.221Z,19.40
2023-03-27T23:21:10.639Z,11.80
2023-03-27T23:23:57.437Z,18.70
2023-03-27T23:26:44.056Z,21.30
2023-03-27T23:29:31.432Z,17.40
2023-03-27T23:32:17.856Z,17.60
2023-03-27T23:35:10.325Z,16.80
2023-03-27T23:37:56.689Z,19.80
2023-03-27T23:40:43.148Z,19.90
2023-03-27T23:43:30.907Z,17.70
2023-03-27T23:46:17.363Z,19.70
2023-03-27T23:49:04.273Z,19.20
2023-03-27T23:51:50.562Z,18.10
2023-03-27T23:54:36.941Z,18.50
2023-03-27T23:57:24.954Z,14.80
